createdAt,value
2018-12-31T00:08:13.943Z,102765.63
2018-12-31T00:11:06.520Z,102774.22
2018-12-31T00:14:00.012Z,102777.36
2018-12-31T00:16:51.024Z,102782.09
2018-12-31T00:22:28.987Z,102788.18
2018-12-31T00:28:30.372Z,102781.03
2018-12-31T00:31:28.959Z,102784.53
2018-12-31T00:40:27.848Z,102785.75
2018-12-31T00:46:19.979Z,102785.11
2018-12-31T00:56:15.340Z,102795.55
2018-12-31T00:58:49.272Z,102803.16
2018-12-31T01:04:55.593Z,102801.71
2018-12-31T01:07:33.341Z,102791.86
2018-12-31T01:09:57.597Z,102795.70
2018-12-31T01:12:29.664Z,102792.48
2018-12-31T01:15:07.102Z,102798.72
2018-12-31T01:27:06.379Z,102795.63
2018-12-31T01:41:45.606Z,102801.15
2018-12-31T01:53:34.492Z,102795.87
2018-12-31T01:56:25.684Z,102795.87
2018-12-31T01:59:00.182Z,102802.36
2018-12-31T02:17:24.425Z,102831.83
2018-12-31T02:20:17.052Z,102839.09
2018-12-31T02:31:25.770Z,102824.44
2018-12-31T02:33:59.451Z,102813.27
2018-12-31T02:36:40.315Z,102807.18
2018-12-31T02:39:16.804Z,102808.93
2018-12-31T02:45:31.430Z,102802.05
2018-12-31T02:48:03.154Z,102796.59
2018-12-31T06:38:37.449Z,102821.06
2018-12-31T06:41:16.487Z,102829.47
2018-12-31T06:46:53.950Z,102833.56
2018-12-31T06:56:11.524Z,102840.16
2018-12-31T07:08:03.361Z,102862.66
2018-12-31T07:13:50.361Z,102862.09
2018-12-31T07:25:43.473Z,102859.43
2018-12-31T07:29:29.596Z,102859.33
2018-12-31T07:35:07.699Z,102872.12
2018-12-31T07:37:59.346Z,102869.14
2018-12-31T07:46:17.536Z,102872.58
2018-12-31T07:48:55.905Z,102870.78
2018-12-31T07:51:38.096Z,102872.30
2018-12-31T07:54:28.752Z,102873.17
2018-12-31T07:57:07.869Z,102871.36
2018-12-31T08:00:07.446Z,102882.41
2018-12-31T08:02:36.087Z,102890.04
2018-12-31T12:00:05.943Z,102880.26
2018-12-31T12:05:47.313Z,102883.52
2018-12-31T12:08:35.663Z,102875.22
2018-12-31T12:11:25.874Z,102875.22
2018-12-31T12:13:57.911Z,102876.53
2018-12-31T12:16:32.263Z,102879.77
2018-12-31T12:19:03.985Z,102878.64
2018-12-31T12:21:39.792Z,102876.61
2018-12-31T12:24:19.888Z,102872.34
2018-12-31T12:26:51.495Z,102874.65
2018-12-31T12:29:50.220Z,102871.95
2018-12-31T12:32:29.901Z,102868.03
2018-12-31T12:35:09.618Z,102863.25
2018-12-31T12:37:58.875Z,102873.45
2018-12-31T12:40:41.487Z,102874.87
2018-12-31T12:43:23.549Z,102877.78
2018-12-31T12:45:59.561Z,102865.45
2018-12-31T12:48:34.024Z,102865.45
2018-12-31T12:51:03.800Z,102872.24
2018-12-31T12:53:34.843Z,102873.47
2018-12-31T12:56:09.157Z,102874.15
2018-12-31T12:58:41.325Z,102874.55
2018-12-31T13:01:19.866Z,102872.52
2018-12-31T13:03:51.469Z,102869.20
2018-12-31T13:06:25.899Z,102872.70
2018-12-31T13:09:27.752Z,102875.47
2018-12-31T13:12:11.815Z,102880.73
2018-12-31T13:14:40.813Z,102880.81
2018-12-31T13:17:49.626Z,102873.95
2018-12-31T13:20:41.716Z,102870.03
2018-12-31T13:23:15.656Z,102870.15
2018-12-31T13:26:07.796Z,102867.66
2018-12-31T13:28:54.825Z,102872.61
2018-12-31T13:31:28.700Z,102868.81
2018-12-31T13:34:06.144Z,102865.45
2018-12-31T13:36:45.830Z,102871.19
2018-12-31T13:39:25.219Z,102863.73
2018-12-31T13:42:28.242Z,102867.75
2018-12-31T13:45:27.853Z,102866.50
2018-12-31T13:48:09.966Z,102869.55
2018-12-31T13:50:44.536Z,102868.09
2018-12-31T13:53:13.187Z,102868.01
2018-12-31T13:56:04.239Z,102872.70
2018-12-31T13:58:36.150Z,102866.41
2018-12-31T14:01:09.007Z,102865.06
2018-12-31T14:03:50.075Z,102863.14
2018-12-31T14:06:26.529Z,102864.77
2018-12-31T14:08:55.964Z,102863.83
2018-12-31T14:11:51.063Z,102862.39
2018-12-31T14:14:45.523Z,102870.98
2018-12-31T14:18:01.012Z,102864.86
2018-12-31T14:20:37.305Z,102868.78
2018-12-31T14:23:12.253Z,102871.63
2018-12-31T14:26:03.446Z,102873.31
2018-12-31T14:28:50.027Z,102879.91
2018-12-31T14:31:26.098Z,102882.02
2018-12-31T14:37:04.409Z,102877.50
2018-12-31T14:40:04.939Z,102885.26
2018-12-31T14:42:46.785Z,102889.09
2018-12-31T14:45:39.506Z,102893.45
2018-12-31T14:48:16.950Z,102894.36
2018-12-31T14:50:49.015Z,102886.16
2018-12-31T14:53:27.524Z,102891.00
2018-12-31T14:56:08.544Z,102880.99
2018-12-31T14:59:00.918Z,102891.59
2018-12-31T15:01:30.135Z,102891.80
2018-12-31T15:04:06.240Z,102897.83
2018-12-31T15:06:40.476Z,102892.72
2018-12-31T15:09:28.226Z,102893.88
2018-12-31T15:12:30.315Z,102893.46
2018-12-31T15:15:05.333Z,102893.38
2018-12-31T15:17:41.527Z,102895.39
2018-12-31T15:20:22.541Z,102892.04
2018-12-31T15:23:10.038Z,102894.02
2018-12-31T15:25:50.123Z,102897.34
2018-12-31T15:28:22.339Z,102902.42
2018-12-31T15:30:56.968Z,102904.55
2018-12-31T15:33:38.366Z,102907.52
2018-12-31T15:36:16.386Z,102908.08
2018-12-31T15:38:52.643Z,102916.66
2018-12-31T15:41:29.932Z,102909.98
2018-12-31T15:44:11.681Z,102912.95
2018-12-31T15:46:46.610Z,102914.08
2018-12-31T15:49:17.176Z,102914.12
2018-12-31T15:51:53.266Z,102868.78
2018-12-31T15:54:27.228Z,102904.97
2018-12-31T15:57:21.093Z,102911.44
2018-12-31T16:00:09.882Z,102870.38
2018-12-31T16:02:52.242Z,102912.91
2018-12-31T16:05:37.034Z,102915.41
2018-12-31T16:08:09.543Z,102919.52
2018-12-31T16:10:51.854Z,102917.53
2018-12-31T16:13:29.283Z,102917.27
2018-12-31T16:16:19.279Z,102916.38
2018-12-31T16:19:17.609Z,102913.44
2018-12-31T16:21:46.342Z,102912.87
2018-12-31T16:24:24.993Z,102907.99
2018-12-31T16:27:03.336Z,102909.62
2018-12-31T16:29:32.663Z,102905.08
2018-12-31T16:32:13.144Z,102906.30
2018-12-31T16:34:48.125Z,102905.54
2018-12-31T16:37:18.826Z,102907.45
2018-12-31T16:39:51.697Z,102904.60
2018-12-31T16:42:21.082Z,102903.28
2018-12-31T16:44:52.025Z,102911.55
2018-12-31T16:47:24.534Z,102911.30
2018-12-31T16:50:27.370Z,102913.95
2018-12-31T16:52:41.885Z,102912.67
2018-12-31T16:55:23.240Z,102912.88
2018-12-31T16:58:13.658Z,102920.07
2018-12-31T17:00:50.945Z,102908.88
2018-12-31T17:03:21.505Z,102904.84
2018-12-31T17:05:51.752Z,102909.05
2018-12-31T17:08:25.318Z,102917.52
2018-12-31T17:11:00.081Z,102911.09
2018-12-31T17:13:36.607Z,102913.10
2018-12-31T17:16:19.221Z,102913.60
2018-12-31T17:18:57.934Z,102910.34
2018-12-31T17:21:49.399Z,102913.98
2018-12-31T17:24:27.788Z,102911.23
2018-12-31T17:27:06.952Z,102902.45
2018-12-31T17:29:43.879Z,102899.31
2018-12-31T17:32:13.761Z,102908.66
2018-12-31T17:34:45.732Z,102907.14
2018-12-31T17:37:17.262Z,102904.75
2018-12-31T17:39:53.541Z,102899.98
2018-12-31T17:42:22.903Z,102898.06
2018-12-31T17:44:59.647Z,102900.63
2018-12-31T17:47:36.023Z,102901.78
2018-12-31T17:50:16.828Z,102901.78
2018-12-31T17:52:48.336Z,102901.03
2018-12-31T17:55:19.741Z,102895.39
2018-12-31T17:57:49.526Z,102896.06
2018-12-31T18:00:27.690Z,102890.31
2018-12-31T18:03:04.854Z,102891.47
2018-12-31T18:05:55.889Z,102895.95
2018-12-31T18:08:38.108Z,102899.62
2018-12-31T18:11:10.208Z,102902.84
2018-12-31T18:14:04.952Z,102908.02
2018-12-31T18:16:28.814Z,102902.40
2018-12-31T18:19:13.376Z,102904.60
2018-12-31T18:21:48.898Z,102904.06
2018-12-31T18:27:03.083Z,102907.73
2018-12-31T18:36:24.975Z,102908.54
2018-12-31T18:39:01.948Z,102911.95
2018-12-31T18:41:31.797Z,102909.91
2018-12-31T18:44:06.087Z,102904.81
2018-12-31T18:50:15.082Z,102907.31
2018-12-31T19:08:21.960Z,102920.70
2018-12-31T19:10:56.954Z,102925.14
2018-12-31T19:13:34.602Z,102922.59
2018-12-31T19:25:20.929Z,102924.74
2018-12-31T19:40:12.655Z,102921.53
2018-12-31T19:42:52.712Z,102916.94
2018-12-31T20:03:06.672Z,102896.23
2018-12-31T20:11:12.135Z,102896.73
2018-12-31T20:17:03.893Z,102882.22
2018-12-31T20:22:38.095Z,102875.64
2018-12-31T20:25:08.882Z,102870.40
2018-12-31T20:27:41.620Z,102863.44
2018-12-31T20:33:26.976Z,102845.02
2018-12-31T20:36:07.117Z,102842.53
2018-12-31T20:39:00.577Z,102842.72
2018-12-31T20:50:48.828Z,102855.88
2018-12-31T20:56:53.784Z,102853.02
2018-12-31T21:02:28.071Z,102853.88
2018-12-31T21:05:23.114Z,102855.67
2018-12-31T21:32:46.563Z,102823.54
2018-12-31T21:38:43.513Z,102829.05
2018-12-31T21:50:20.355Z,102769.80
2018-12-31T21:54:01.161Z,102824.48
2018-12-31T22:17:27.054Z,102834.06
2018-12-31T22:20:23.335Z,102837.81
2018-12-31T22:26:04.736Z,102825.41
2018-12-31T22:29:23.191Z,102827.41
2018-12-31T22:38:06.311Z,102828.69
2018-12-31T22:43:59.942Z,102829.12
2018-12-31T22:46:47.995Z,102829.81
2018-12-31T22:59:11.573Z,102816.89
2018-12-31T23:17:16.974Z,102807.80
2018-12-31T23:25:55.135Z,102802.05
2018-12-31T23:31:48.237Z,102791.57
2018-12-31T23:34:41.057Z,102782.91
2018-12-31T23:37:20.783Z,102784.65
2018-12-31T23:40:11.237Z,102786.25
2018-12-31T23:42:50.541Z,102784.24
